メインページ
METAR-TAF:

METAR-TAF

空港 :

ンジャメナ, チャド

ンジャメナ国際空港

緯度: 12-08N, 経度: 015-02E, 海抜: 295m

現時点の気象観測

当レポートは39分前の23:00(UTC)に作成
無風
気温 29°C
湿度 23%
気圧 1008 hPa
視程10km以上
1,500メートル以下は雲なし、積乱雲なし

METAR: FTTJ 232300Z 00000KT CAVOK 29/06 Q1008 NOSIG

時間: 00:39 (23:39 UTC)

予報

当レポートは6時間39分前の17:00(UTC)に作成
予報は23日の 18時(UTC)から 24日の 24時(UTC)まで有効
北/北東の風 6kt
視程10km以上
1,500メートル以下は雲なし、積乱雲なし
24日の 06時(UTC)から 24日の 08時(UTC)まで徐々に
の風 10kt
24日の 15時(UTC)から 24日の 17時(UTC)まで徐々に
北/北東の風 8kt

TAF: FTTJ 231700Z 2318/2424 02006KT CAVOK BECMG 2406/2408 08010KT BECMG 2415/2417 02008KT

4,000以上の空港の気象観測と天気予報(METAR報とTAF報)

利用可能な観測所は地図上に黄色い丸と赤い丸で示す。

丸の上にカーソルを重ねると観測所名を参照できる。

次にクリックすると気象観測と天気予報を参照できる。

マップの切り替え:黒色「×」印の緑ボタンをクリックして拡大、「-」印の緑ボタンをクリックして縮小、緑色の三角印をクリックして隣りの地図に切り替え


METAR-TAF: